createdAt,value
2023-01-22T00:00:42.093Z,98936.56
2023-01-22T00:03:35.319Z,98933.91
2023-01-22T00:06:24.594Z,98941.66
2023-01-22T00:09:12.273Z,98936.56
2023-01-22T00:12:01.701Z,98942.66
2023-01-22T00:14:49.737Z,98936.56
2023-01-22T00:17:38.272Z,98933.06
2023-01-22T00:20:26.644Z,98929.53
2023-01-22T00:23:14.125Z,98929.53
2023-01-22T00:26:03.230Z,98930.38
2023-01-22T00:28:52.439Z,98932.94
2023-01-22T00:31:40.626Z,98928.59
2023-01-22T00:34:28.470Z,98924.31
2023-01-22T00:37:16.360Z,98923.44
2023-01-22T00:40:04.672Z,98919.16
2023-01-22T00:42:52.454Z,98918.22
2023-01-22T00:45:41.634Z,98921.69
2023-01-22T00:48:30.124Z,98924.31
2023-01-22T00:51:18.627Z,98924.31
2023-01-22T00:54:06.852Z,98933.06
2023-01-22T00:56:54.562Z,98932.22
2023-01-22T00:59:45.644Z,98933.06
2023-01-22T01:02:54.801Z,98931.34
2023-01-22T01:05:42.584Z,98942.66
2023-01-22T01:08:33.034Z,98938.28
2023-01-22T01:11:25.151Z,98938.28
2023-01-22T01:14:12.807Z,98928.69
2023-01-22T01:17:00.803Z,98933.06
2023-01-22T01:19:50.108Z,98944.28
2023-01-22T01:22:38.146Z,98942.44
2023-01-22T01:25:26.209Z,98936.44
2023-01-22T01:28:14.216Z,98945.13
2023-01-22T01:31:05.039Z,98945.06
2023-01-22T01:33:52.955Z,98936.44
2023-01-22T01:36:49.905Z,98934.75
2023-01-22T01:39:37.902Z,98933.81
2023-01-22T01:42:29.091Z,98932.06
2023-01-22T01:45:26.807Z,98939.97
2023-01-22T01:48:25.308Z,98933.81
2023-01-22T01:51:21.708Z,98936.44
2023-01-22T01:54:11.654Z,98933.81
2023-01-22T01:57:05.157Z,98934.75
2023-01-22T01:59:54.054Z,98937.28
2023-01-22T02:02:42.370Z,98948.59
2023-01-22T02:05:37.154Z,98939.03
2023-01-22T02:08:25.203Z,98948.59
2023-01-22T02:11:15.062Z,98946.06
2023-01-22T02:14:05.631Z,98943.38
2023-01-22T02:17:02.733Z,98948.59
2023-01-22T02:19:50.730Z,98947.72
2023-01-22T02:22:40.863Z,98960.78
2023-01-22T02:25:28.533Z,98961.72
2023-01-22T02:28:16.474Z,98955.63
2023-01-22T02:31:04.637Z,98961.72
2023-01-22T02:33:52.445Z,98962.53
2023-01-22T02:36:41.333Z,98959.09
2023-01-22T02:39:31.115Z,98962.53
2023-01-22T02:42:19.036Z,98962.53
2023-01-22T02:45:07.940Z,98966.09
2023-01-22T02:47:55.917Z,98963.47
2023-01-22T02:50:46.220Z,98960.78
2023-01-22T02:53:34.125Z,98960.72
2023-01-22T02:56:24.009Z,98959.88
2023-01-22T02:59:11.999Z,98960.72
2023-01-22T03:02:02.416Z,98962.47
2023-01-22T03:04:50.928Z,98959.03
2023-01-22T03:07:45.139Z,98964.25
2023-01-22T03:10:32.918Z,98960.72
2023-01-22T03:13:41.478Z,98965.94
2023-01-22T03:16:46.558Z,98968.56
2023-01-22T03:19:52.763Z,98965.09
2023-01-22T03:22:40.690Z,98970.31
2023-01-22T03:25:28.505Z,98969.47
2023-01-22T03:28:19.236Z,98960.72
2023-01-22T03:31:09.040Z,98963.31
2023-01-22T03:33:57.054Z,98963.31
2023-01-22T03:36:45.323Z,98955.50
2023-01-22T03:39:33.809Z,98965.94
2023-01-22T03:42:21.308Z,98959.88
2023-01-22T03:45:10.761Z,98970.22
2023-01-22T03:48:00.348Z,98961.66
2023-01-22T03:50:48.456Z,98964.25
2023-01-22T03:53:36.906Z,98959.88
2023-01-22T03:56:26.084Z,98971.16
2023-01-22T03:59:14.407Z,98967.69
2023-01-22T04:02:02.361Z,98971.16
2023-01-22T04:04:51.477Z,98971.16
2023-01-22T04:07:39.295Z,98975.53
2023-01-22T04:10:27.090Z,98968.56
2023-01-22T04:13:15.606Z,98977.31
2023-01-22T04:16:03.916Z,98985.97
2023-01-22T04:18:51.883Z,98981.59
2023-01-22T04:21:41.226Z,98978.22
2023-01-22T04:24:29.201Z,98987.75
2023-01-22T04:27:19.298Z,98983.44
2023-01-22T04:30:08.516Z,98985.16
2023-01-22T04:32:56.571Z,98985.16
2023-01-22T04:35:44.548Z,98979.94
2023-01-22T04:38:33.993Z,98985.16
2023-01-22T04:41:22.092Z,98983.38
2023-01-22T04:44:10.048Z,98992.97
2023-01-22T04:46:57.941Z,98997.28
2023-01-22T04:49:46.024Z,98996.41
2023-01-22T04:52:33.990Z,98999.03
2023-01-22T04:55:24.124Z,99005.97
2023-01-22T04:58:11.975Z,99007.72
2023-01-22T05:01:00.417Z,99006.78
2023-01-22T05:03:48.211Z,99014.63
2023-01-22T05:06:36.154Z,99012.00
2023-01-22T05:09:24.660Z,99012.00
2023-01-22T05:12:13.899Z,99016.41
2023-01-22T05:15:02.934Z,99021.56
2023-01-22T05:17:51.940Z,99025.94
2023-01-22T05:20:40.893Z,99022.38
2023-01-22T05:23:28.833Z,99032.00
2023-01-22T05:26:16.804Z,99030.22
2023-01-22T05:29:06.315Z,99034.63
2023-01-22T05:31:54.269Z,99028.47
2023-01-22T05:34:42.123Z,99031.06
2023-01-22T05:37:30.152Z,99035.38
2023-01-22T05:40:20.312Z,99031.88
2023-01-22T05:43:08.150Z,99037.09
2023-01-22T05:46:02.022Z,99036.22
2023-01-22T05:48:49.635Z,99040.59
2023-01-22T05:51:37.738Z,99041.53
2023-01-22T05:54:25.609Z,99038.06
2023-01-22T05:57:13.641Z,99047.66
2023-01-22T06:00:01.667Z,99049.50
2023-01-22T06:02:51.003Z,99054.72
2023-01-22T06:05:39.051Z,99052.97
2023-01-22T06:08:27.827Z,99053.03
2023-01-22T06:11:17.652Z,99058.19
2023-01-22T06:14:05.625Z,99053.03
2023-01-22T06:16:53.208Z,99058.25
2023-01-22T06:19:42.570Z,99055.72
2023-01-22T06:22:30.565Z,99065.28
2023-01-22T06:25:18.566Z,99068.78
2023-01-22T06:28:06.354Z,99076.59
2023-01-22T06:30:57.407Z,99076.59
2023-01-22T06:33:45.277Z,99080.97
2023-01-22T06:36:34.649Z,99077.44
2023-01-22T06:39:22.382Z,99080.09
2023-01-22T06:42:10.315Z,99078.41
2023-01-22T06:44:59.519Z,99075.88
2023-01-22T06:47:47.428Z,99086.31
2023-01-22T06:50:35.117Z,99087.19
2023-01-22T06:53:24.365Z,99090.69
2023-01-22T06:56:12.166Z,99085.56
2023-01-22T06:59:02.142Z,99095.09
2023-01-22T07:01:50.649Z,99091.69
2023-01-22T07:04:38.306Z,99096.84
2023-01-22T07:07:26.200Z,99097.69
2023-01-22T07:10:16.830Z,99097.69
2023-01-22T07:13:04.786Z,99102.00
2023-01-22T07:15:53.049Z,99111.50
2023-01-22T07:18:40.968Z,99112.44
2023-01-22T07:21:28.782Z,99112.44
2023-01-22T07:24:16.495Z,99120.25
2023-01-22T07:27:06.061Z,99120.25
2023-01-22T07:29:53.763Z,99124.56
2023-01-22T07:32:42.328Z,99131.56
2023-01-22T07:35:30.892Z,99125.41
2023-01-22T07:38:18.738Z,99136.72
2023-01-22T07:41:20.311Z,99131.50
2023-01-22T07:44:15.075Z,99131.44
2023-01-22T07:47:02.876Z,99137.47
2023-01-22T07:49:50.749Z,99138.28
2023-01-22T07:52:38.850Z,99139.97
2023-01-22T07:55:27.101Z,99145.19
2023-01-22T07:58:15.141Z,99140.75
2023-01-22T08:01:07.051Z,99148.59
2023-01-22T08:03:54.893Z,99150.34
2023-01-22T08:06:43.252Z,99152.06
2023-01-22T08:09:31.044Z,99159.81
2023-01-22T08:12:19.001Z,99154.53
2023-01-22T08:15:07.637Z,99157.06
2023-01-22T08:17:56.775Z,99166.59
2023-01-22T08:20:44.356Z,99160.44
2023-01-22T08:23:32.596Z,99164.69
2023-01-22T08:26:20.503Z,99167.22
2023-01-22T08:29:08.688Z,99171.41
2023-01-22T08:31:56.566Z,99172.19
2023-01-22T08:34:45.845Z,99170.34
2023-01-22T08:37:33.775Z,99179.75
2023-01-22T08:40:21.743Z,99174.53
2023-01-22T08:43:09.605Z,99182.22
2023-01-22T08:45:57.481Z,99188.16
2023-01-22T08:48:45.417Z,99197.63
2023-01-22T08:51:34.924Z,99193.94
2023-01-22T08:54:22.977Z,99192.13
2023-01-22T08:57:10.937Z,99205.84
2023-01-22T09:00:01.346Z,99206.63
2023-01-22T09:02:49.307Z,99202.94
2023-01-22T09:05:41.524Z,99206.34
2023-01-22T09:08:30.748Z,99205.28
2023-01-22T09:11:21.830Z,99212.09
2023-01-22T09:14:09.997Z,99216.25
2023-01-22T09:16:58.153Z,99210.03
2023-01-22T09:19:46.237Z,99210.81
2023-01-22T09:22:37.553Z,99212.28
2023-01-22T09:25:26.799Z,99215.44
2023-01-22T09:28:15.051Z,99209.25
2023-01-22T09:31:03.234Z,99215.16
2023-01-22T09:33:55.570Z,99224.53
2023-01-22T09:36:44.199Z,99224.38
2023-01-22T09:39:32.207Z,99224.22
2023-01-22T09:42:26.621Z,99225.78
2023-01-22T09:45:17.361Z,99229.00
2023-01-22T09:48:13.232Z,99237.66
2023-01-22T09:51:04.340Z,99232.13
2023-01-22T09:53:58.270Z,99242.44
2023-01-22T09:56:50.023Z,99237.81
2023-01-22T09:59:44.354Z,99237.75
2023-01-22T10:02:40.327Z,99236.00
2023-01-22T10:05:34.093Z,99243.72
2023-01-22T10:08:24.571Z,99244.41
2023-01-22T10:11:12.374Z,99234.63
2023-01-22T10:14:02.621Z,99243.28
2023-01-22T10:16:52.286Z,99237.97
2023-01-22T10:19:49.889Z,99239.50
2023-01-22T10:22:45.580Z,99233.19
2023-01-22T10:25:38.212Z,99231.22
2023-01-22T10:28:28.628Z,99236.38
2023-01-22T10:31:27.493Z,99239.75
2023-01-22T10:34:21.718Z,99237.84
2023-01-22T10:37:16.662Z,99233.31
2023-01-22T10:40:05.144Z,99241.91
2023-01-22T10:43:04.868Z,99246.84
2023-01-22T10:45:54.568Z,99250.09
2023-01-22T10:48:42.685Z,99249.03
2023-01-22T10:51:36.844Z,99251.50
2023-01-22T10:54:30.605Z,99256.56
2023-01-22T10:57:21.996Z,99257.31
2023-01-22T11:00:24.241Z,99259.81
2023-01-22T11:03:20.720Z,99261.38
2023-01-22T11:06:15.271Z,99259.50
2023-01-22T11:09:07.927Z,99259.34
2023-01-22T11:12:16.938Z,99261.81
2023-01-22T11:15:16.698Z,99262.59
2023-01-22T11:18:07.069Z,99265.81
2023-01-22T11:20:58.672Z,99263.34
2023-01-22T11:23:53.376Z,99261.59
2023-01-22T11:26:56.287Z,99254.75
2023-01-22T11:30:09.722Z,99250.59
2023-01-22T11:33:02.739Z,99246.88
2023-01-22T11:35:55.607Z,99251.97
2023-01-22T11:38:51.192Z,99244.84
2023-01-22T11:41:55.380Z,99246.56
2023-01-22T11:45:01.584Z,99237.94
2023-01-22T11:48:11.297Z,99232.53
2023-01-22T11:51:12.364Z,99238.56
2023-01-22T11:54:20.314Z,99229.69
2023-01-22T11:57:18.309Z,99231.19
2023-01-22T12:00:26.562Z,99239.78
2023-01-22T12:03:56.337Z,99235.28
2023-01-22T12:07:06.532Z,99230.81
2023-01-22T12:10:07.177Z,99233.28
2023-01-22T12:13:05.379Z,99232.41
2023-01-22T12:16:05.891Z,99234.13
2023-01-22T12:19:20.800Z,99231.44
2023-01-22T12:22:21.809Z,99224.31
2023-01-22T12:25:19.053Z,99228.56
2023-01-22T12:28:16.987Z,99231.13
2023-01-22T12:31:19.498Z,99230.94
2023-01-22T12:34:19.843Z,99230.03
2023-01-22T12:37:08.915Z,99231.78
2023-01-22T12:40:17.682Z,99230.03
2023-01-22T12:43:07.580Z,99235.19
2023-01-22T12:46:05.752Z,99230.78
2023-01-22T12:49:02.901Z,99228.06
2023-01-22T12:51:53.278Z,99219.38
2023-01-22T12:54:41.883Z,99219.31
2023-01-22T12:57:40.392Z,99226.31
2023-01-22T13:00:34.680Z,99214.81
2023-01-22T13:03:33.014Z,99212.88
2023-01-22T13:06:33.207Z,99225.91
2023-01-22T13:09:27.368Z,99220.59
2023-01-22T13:12:30.267Z,99218.97
2023-01-22T13:15:22.598Z,99216.28
2023-01-22T13:18:21.780Z,99209.22
2023-01-22T13:21:15.614Z,99213.56
2023-01-22T13:24:06.072Z,99224.88
2023-01-22T13:27:02.676Z,99222.88
2023-01-22T13:29:50.489Z,99228.72
2023-01-22T13:32:38.605Z,99230.34
2023-01-22T13:35:26.255Z,99223.91
2023-01-22T13:38:21.986Z,99221.88
2023-01-22T13:41:13.056Z,99226.97
2023-01-22T13:44:01.164Z,99232.03
2023-01-22T13:46:50.379Z,99227.47
2023-01-22T13:49:44.073Z,99223.75
2023-01-22T13:52:33.484Z,99228.84
2023-01-22T13:55:24.454Z,99230.44
2023-01-22T13:58:47.857Z,99233.06
2023-01-22T14:01:38.543Z,99235.69
2023-01-22T14:04:37.074Z,99222.72
2023-01-22T14:07:26.556Z,99231.22
2023-01-22T14:10:16.630Z,99233.75
2023-01-22T14:13:09.236Z,99237.41
2023-01-22T14:16:01.985Z,99243.22
2023-01-22T14:18:49.964Z,99241.47
2023-01-22T14:21:38.390Z,99250.94
2023-01-22T14:24:26.704Z,99248.31
2023-01-22T14:27:14.971Z,99250.94
2023-01-22T14:30:04.342Z,99262.28
2023-01-22T14:32:52.437Z,99260.53
2023-01-22T14:35:40.450Z,99265.78
2023-01-22T14:38:29.296Z,99253.47
2023-01-22T14:41:17.205Z,99264.91
2023-01-22T14:44:05.878Z,99265.78
2023-01-22T14:46:55.593Z,99260.53
2023-01-22T14:49:43.367Z,99269.31
2023-01-22T14:52:31.531Z,99279.81
2023-01-22T14:55:19.710Z,99272.00
2023-01-22T14:58:07.641Z,99265.09
2023-01-22T15:00:56.219Z,99268.66
2023-01-22T15:03:45.595Z,99271.34
2023-01-22T15:06:33.312Z,99272.25
2023-01-22T15:09:21.210Z,99268.03
2023-01-22T15:12:09.473Z,99266.44
2023-01-22T15:14:57.214Z,99279.72
2023-01-22T15:17:45.212Z,99282.34
2023-01-22T15:20:34.263Z,99275.56
2023-01-22T15:23:22.171Z,99280.19
2023-01-22T15:26:26.849Z,99278.69
2023-01-22T15:29:15.939Z,99296.25
2023-01-22T15:32:04.719Z,99297.38
2023-01-22T15:34:52.760Z,99300.06
2023-01-22T15:37:42.275Z,99301.09
2023-01-22T15:40:32.299Z,99307.22
2023-01-22T15:43:20.606Z,99305.63
2023-01-22T15:46:08.827Z,99314.44
2023-01-22T15:48:59.661Z,99311.09
2023-01-22T15:51:47.788Z,99318.28
2023-01-22T15:54:37.133Z,99312.38
2023-01-22T15:57:25.132Z,99311.66
2023-01-22T16:00:14.935Z,99314.44
2023-01-22T16:03:02.966Z,99323.31
2023-01-22T16:05:51.164Z,99315.53
2023-01-22T16:08:39.198Z,99320.06
2023-01-22T16:11:30.207Z,99317.53
2023-01-22T16:14:19.210Z,99324.63
2023-01-22T16:17:07.076Z,99323.94
2023-01-22T16:19:55.012Z,99326.72
2023-01-22T16:22:45.488Z,99324.25
2023-01-22T16:25:33.514Z,99327.88
2023-01-22T16:28:22.944Z,99336.75
2023-01-22T16:31:13.103Z,99330.78
2023-01-22T16:34:07.046Z,99335.28
2023-01-22T16:36:55.455Z,99333.63
2023-01-22T16:39:43.152Z,99342.44
2023-01-22T16:42:31.000Z,99348.75
2023-01-22T16:45:20.030Z,99354.91
2023-01-22T16:48:08.052Z,99353.38
2023-01-22T16:50:56.399Z,99354.28
2023-01-22T16:53:44.257Z,99351.81
2023-01-22T16:56:33.469Z,99350.97
2023-01-22T16:59:21.421Z,99356.34
2023-01-22T17:02:15.689Z,99361.66
2023-01-22T17:05:03.554Z,99366.16
2023-01-22T17:07:52.747Z,99372.28
2023-01-22T17:10:40.445Z,99361.06
2023-01-22T17:13:31.052Z,99373.38
2023-01-22T17:16:20.368Z,99375.22
2023-01-22T17:19:09.861Z,99377.91
2023-01-22T17:21:59.211Z,99376.22
2023-01-22T17:24:47.751Z,99378.91
2023-01-22T17:27:36.224Z,99387.69
2023-01-22T17:30:24.538Z,99382.59
2023-01-22T17:36:03.775Z,99394.16
2023-01-22T17:38:51.691Z,99398.59
2023-01-22T17:41:40.190Z,99403.03
2023-01-22T17:44:29.860Z,99408.34
2023-01-22T17:47:17.626Z,99415.44
2023-01-22T17:50:06.877Z,99401.56
2023-01-22T17:52:56.224Z,99411.22
2023-01-22T17:55:43.958Z,99413.03
2023-01-22T17:58:31.835Z,99420.09
2023-01-22T18:01:39.227Z,99412.31
2023-01-22T18:04:27.906Z,99424.59
2023-01-22T18:07:17.083Z,99435.97
2023-01-22T18:10:07.277Z,99435.19
2023-01-22T18:12:55.376Z,99437.88
2023-01-22T18:15:47.068Z,99436.09
2023-01-22T18:18:35.336Z,99445.75
2023-01-22T18:21:24.030Z,99445.81
2023-01-22T18:24:14.092Z,99451.13
2023-01-22T18:27:03.503Z,99455.50
2023-01-22T18:29:51.412Z,99453.81
2023-01-22T18:32:39.736Z,99460.72
2023-01-22T18:35:29.398Z,99465.09
2023-01-22T18:38:20.738Z,99469.50
2023-01-22T18:41:13.579Z,99470.34
2023-01-22T18:44:08.927Z,99462.47
2023-01-22T18:47:04.666Z,99466.03
2023-01-22T18:49:53.413Z,99473.94
2023-01-22T18:52:47.430Z,99469.66
2023-01-22T18:55:39.228Z,99474.88
2023-01-22T18:58:34.280Z,99468.78
2023-01-22T19:01:26.399Z,99476.69
2023-01-22T19:04:22.173Z,99475.00
2023-01-22T19:07:10.345Z,99476.84
2023-01-22T19:10:05.829Z,99470.78
2023-01-22T19:12:53.459Z,99483.94
2023-01-22T19:15:43.747Z,99481.25
2023-01-22T19:18:35.908Z,99478.69
2023-01-22T19:21:25.542Z,99476.84
2023-01-22T19:24:29.080Z,99483.06
2023-01-22T19:27:20.387Z,99483.06
2023-01-22T19:30:12.724Z,99484.81
2023-01-22T19:33:02.527Z,99478.81
2023-01-22T19:35:54.516Z,99478.81
2023-01-22T19:38:48.726Z,99478.91
2023-01-22T19:41:38.408Z,99486.81
2023-01-22T19:44:26.274Z,99485.88
2023-01-22T19:47:15.360Z,99484.19
2023-01-22T19:50:05.159Z,99494.72
2023-01-22T19:52:57.104Z,99493.94
2023-01-22T19:55:45.137Z,99493.94
2023-01-22T19:58:33.084Z,99487.88
2023-01-22T20:01:28.288Z,99491.38
2023-01-22T20:04:23.940Z,99494.06
2023-01-22T20:07:11.850Z,99495.78
2023-01-22T20:10:01.277Z,99496.75
2023-01-22T20:12:51.637Z,99506.44
2023-01-22T20:15:39.858Z,99505.53
2023-01-22T20:18:28.313Z,99501.97
2023-01-22T20:21:19.139Z,99508.06
2023-01-22T20:24:12.061Z,99506.38
2023-01-22T20:27:05.586Z,99504.59
2023-01-22T20:29:56.550Z,99506.44
2023-01-22T20:32:45.470Z,99503.84
2023-01-22T20:35:36.108Z,99508.22
2023-01-22T20:38:27.769Z,99512.59
2023-01-22T20:41:21.015Z,99509.19
2023-01-22T20:44:12.305Z,99517.00
2023-01-22T20:47:02.790Z,99509.19
2023-01-22T20:49:51.062Z,99516.25
2023-01-22T20:52:39.926Z,99520.56
2023-01-22T20:55:27.568Z,99525.88
2023-01-22T20:58:15.788Z,99524.22
2023-01-22T21:01:13.576Z,99530.47
2023-01-22T21:04:02.809Z,99526.97
2023-01-22T21:06:53.332Z,99527.91
2023-01-22T21:09:54.945Z,99531.44
2023-01-22T21:12:46.822Z,99534.06
2023-01-22T21:15:39.396Z,99530.66
2023-01-22T21:18:28.672Z,99534.13
2023-01-22T21:21:21.065Z,99529.84
2023-01-22T21:24:19.534Z,99539.41
2023-01-22T21:27:09.565Z,99541.19
2023-01-22T21:30:09.715Z,99542.09
2023-01-22T21:32:58.020Z,99540.38
2023-01-22T21:35:53.221Z,99553.47
2023-01-22T21:38:40.891Z,99555.25
2023-01-22T21:41:41.198Z,99556.06
2023-01-22T21:44:46.459Z,99556.94
2023-01-22T21:47:42.507Z,99558.69
2023-01-22T21:50:30.392Z,99565.72
2023-01-22T21:53:19.635Z,99565.72
2023-01-22T21:56:08.397Z,99564.84
2023-01-22T21:58:57.774Z,99567.47
2023-01-22T22:02:10.107Z,99563.16
2023-01-22T22:05:10.634Z,99567.53
2023-01-22T22:08:02.963Z,99561.44
2023-01-22T22:11:11.915Z,99564.06
2023-01-22T22:14:15.645Z,99567.53
2023-01-22T22:17:03.514Z,99572.75
2023-01-22T22:20:04.916Z,99568.38
2023-01-22T22:23:04.698Z,99571.00
2023-01-22T22:26:17.284Z,99576.19
2023-01-22T22:29:23.433Z,99576.19
2023-01-22T22:32:11.269Z,99574.50
2023-01-22T22:35:19.271Z,99578.06
2023-01-22T22:38:16.627Z,99578.91
2023-01-22T22:41:23.486Z,99576.31
2023-01-22T22:44:11.901Z,99574.56
2023-01-22T22:46:59.920Z,99576.31
2023-01-22T22:49:49.038Z,99584.16
2023-01-22T22:52:40.508Z,99580.66
2023-01-22T22:55:28.752Z,99574.56
2023-01-22T23:01:43.827Z,99578.13
2023-01-22T23:04:31.659Z,99589.44
2023-01-22T23:07:19.752Z,99586.88
2023-01-22T23:10:28.536Z,99585.16
2023-01-22T23:13:16.554Z,99589.50
2023-01-22T23:16:08.525Z,99585.16
2023-01-22T23:18:58.024Z,99587.00
2023-01-22T23:21:46.754Z,99592.25
2023-01-22T23:24:34.591Z,99586.16
2023-01-22T23:27:22.560Z,99588.81
2023-01-22T23:30:11.579Z,99594.06
2023-01-22T23:33:00.748Z,99593.22
2023-01-22T23:35:51.317Z,99592.38
2023-01-22T23:38:39.847Z,99598.53
2023-01-22T23:41:27.913Z,99590.69
2023-01-22T23:44:15.427Z,99590.69
2023-01-22T23:47:03.653Z,99590.69
2023-01-22T23:49:53.120Z,99600.28
2023-01-22T23:52:40.951Z,99594.19
2023-01-22T23:55:29.023Z,99597.66
2023-01-22T23:58:17.157Z,99599.41
